createdAt,value
2017-11-19T00:01:20.157Z,10.13
2017-11-19T00:03:46.570Z,10.50
2017-11-19T00:06:12.944Z,9.93
2017-11-19T00:08:39.307Z,10.47
2017-11-19T00:11:05.665Z,8.90
2017-11-19T00:13:32.798Z,9.27
2017-11-19T00:15:59.197Z,7.67
2017-11-19T00:18:25.569Z,10.07
2017-11-19T00:20:51.937Z,9.57
2017-11-19T00:23:18.325Z,9.40
2017-11-19T00:25:45.474Z,9.87
2017-11-19T00:28:12.578Z,10.53
2017-11-19T00:30:38.969Z,9.57
2017-11-19T00:33:06.825Z,10.17
2017-11-19T00:35:33.980Z,10.50
2017-11-19T00:38:00.318Z,10.10
2017-11-19T00:40:26.663Z,10.50
2017-11-19T00:42:53.069Z,10.60
2017-11-19T00:45:19.404Z,9.93
2017-11-19T00:47:45.777Z,8.40
2017-11-19T00:50:12.135Z,7.73
2017-11-19T00:52:38.485Z,7.70
2017-11-19T00:55:04.798Z,8.70
2017-11-19T00:57:31.952Z,7.27
2017-11-19T00:59:58.302Z,8.97
2017-11-19T01:02:24.682Z,6.47
2017-11-19T01:04:51.011Z,7.20
2017-11-19T01:07:17.377Z,7.40
2017-11-19T01:09:43.704Z,7.07
2017-11-19T01:12:10.017Z,5.60
2017-11-19T01:14:37.086Z,7.17
2017-11-19T01:17:03.437Z,6.83
2017-11-19T01:19:29.793Z,6.90
2017-11-19T01:21:56.149Z,6.20
2017-11-19T01:24:22.505Z,6.70
2017-11-19T01:26:48.841Z,7.60
2017-11-19T01:29:15.199Z,7.70
2017-11-19T01:31:42.314Z,7.03
2017-11-19T01:34:08.871Z,9.83
2017-11-19T01:36:35.217Z,8.93
2017-11-19T01:39:01.578Z,8.70
2017-11-19T01:41:28.733Z,8.50
2017-11-19T01:43:55.865Z,7.70
2017-11-19T01:46:22.276Z,9.30
2017-11-19T01:48:49.372Z,6.27
2017-11-19T01:51:17.329Z,7.07
2017-11-19T01:53:43.701Z,5.83
2017-11-19T01:56:10.157Z,6.63
2017-11-19T01:58:36.501Z,8.57
2017-11-19T02:01:02.873Z,7.80
2017-11-19T02:03:30.009Z,6.93
2017-11-19T02:05:57.466Z,7.33
2017-11-19T02:08:23.817Z,6.10
2017-11-19T02:10:50.167Z,6.03
2017-11-19T02:13:16.546Z,6.47
2017-11-19T02:15:43.645Z,5.53
2017-11-19T02:18:10.011Z,5.20
2017-11-19T02:20:36.353Z,5.80
2017-11-19T02:23:02.769Z,6.77
2017-11-19T02:25:29.138Z,7.53
2017-11-19T02:27:55.485Z,6.30
2017-11-19T02:30:22.634Z,6.17
2017-11-19T02:32:49.014Z,5.50
2017-11-19T02:35:16.125Z,6.17
2017-11-19T02:37:42.485Z,8.80
2017-11-19T02:40:08.849Z,8.23
2017-11-19T02:42:35.201Z,6.70
2017-11-19T02:45:01.565Z,6.27
2017-11-19T02:47:28.657Z,6.57
2017-11-19T02:49:55.061Z,12.73
2017-11-19T02:52:21.430Z,7.67
2017-11-19T02:54:47.796Z,5.83
2017-11-19T02:57:14.184Z,12.33
2017-11-19T02:59:40.573Z,4.43
2017-11-19T03:02:06.945Z,4.70
2017-11-19T03:04:33.358Z,4.77
2017-11-19T03:06:59.721Z,4.80
2017-11-19T03:09:26.101Z,4.57
2017-11-19T03:11:52.534Z,4.90
2017-11-19T03:14:19.653Z,4.60
2017-11-19T03:16:46.021Z,4.83
2017-11-19T03:19:12.385Z,4.67
2017-11-19T03:21:38.811Z,5.50
2017-11-19T03:24:05.947Z,5.57
2017-11-19T03:26:32.374Z,4.77
2017-11-19T03:28:58.753Z,5.23
2017-11-19T03:31:25.125Z,5.07
2017-11-19T03:33:51.481Z,4.60
2017-11-19T03:36:17.849Z,3.73
2017-11-19T03:38:44.233Z,3.83
2017-11-19T03:41:10.590Z,3.27
2017-11-19T03:43:37.005Z,4.70
2017-11-19T03:46:03.517Z,4.30
2017-11-19T03:48:29.909Z,3.77
2017-11-19T03:50:56.330Z,4.50
2017-11-19T03:53:22.737Z,2.90
2017-11-19T03:55:49.849Z,2.80
2017-11-19T03:58:16.291Z,3.67
2017-11-19T04:00:42.677Z,3.77
2017-11-19T04:03:09.033Z,3.57
2017-11-19T04:05:35.420Z,3.17
2017-11-19T04:08:01.786Z,3.50
2017-11-19T04:10:28.165Z,3.93
2017-11-19T04:12:54.538Z,4.27
2017-11-19T04:15:20.922Z,3.63
2017-11-19T04:17:47.265Z,4.43
2017-11-19T04:20:13.652Z,5.20
2017-11-19T04:22:39.995Z,3.90
2017-11-19T04:25:06.441Z,4.60
2017-11-19T04:27:32.829Z,5.10
2017-11-19T04:29:59.221Z,5.27
2017-11-19T04:32:26.337Z,5.40
2017-11-19T04:34:53.477Z,6.50
2017-11-19T04:37:19.834Z,4.87
2017-11-19T04:39:46.169Z,6.90
2017-11-19T04:42:12.584Z,6.00
2017-11-19T04:44:38.956Z,6.70
2017-11-19T04:47:05.310Z,6.50
2017-11-19T04:49:33.455Z,7.63
2017-11-19T04:51:59.821Z,6.43
2017-11-19T04:54:26.217Z,7.00
2017-11-19T04:56:52.553Z,5.73
2017-11-19T04:59:19.657Z,4.93
2017-11-19T05:01:46.033Z,5.90
2017-11-19T05:04:13.181Z,4.63
2017-11-19T05:06:39.570Z,7.13
2017-11-19T05:09:06.832Z,5.50
2017-11-19T05:11:33.928Z,5.63
2017-11-19T05:14:00.288Z,5.77
2017-11-19T05:16:26.660Z,5.20
2017-11-19T05:18:52.989Z,4.83
2017-11-19T05:21:19.349Z,5.00
2017-11-19T05:23:45.676Z,4.40
2017-11-19T05:26:12.817Z,4.40
2017-11-19T05:28:39.197Z,5.13
2017-11-19T05:31:05.557Z,4.53
2017-11-19T05:33:31.961Z,3.93
2017-11-19T05:35:58.368Z,4.53
2017-11-19T05:38:24.725Z,4.10
2017-11-19T05:40:51.082Z,6.13
2017-11-19T05:43:17.434Z,4.97
2017-11-19T05:45:43.806Z,4.90
2017-11-19T05:48:10.917Z,5.33
2017-11-19T05:50:37.248Z,4.87
2017-11-19T05:53:03.601Z,4.80
2017-11-19T05:55:29.970Z,4.60
2017-11-19T05:57:56.341Z,4.40
2017-11-19T06:00:22.701Z,3.70
2017-11-19T06:02:49.057Z,4.10
2017-11-19T06:05:15.429Z,4.80
2017-11-19T06:07:41.765Z,3.97
2017-11-19T06:10:08.181Z,3.90
2017-11-19T06:12:35.278Z,5.50
2017-11-19T06:15:02.486Z,3.93
2017-11-19T06:17:28.875Z,4.43
2017-11-19T06:19:55.257Z,5.03
2017-11-19T06:22:22.807Z,4.23
2017-11-19T06:24:49.598Z,4.10
2017-11-19T06:27:16.701Z,3.70
2017-11-19T06:29:43.093Z,3.87
2017-11-19T06:32:09.453Z,3.77
2017-11-19T06:34:35.905Z,4.40
2017-11-19T06:37:02.321Z,3.80
2017-11-19T06:39:28.694Z,3.70
2017-11-19T06:41:55.825Z,3.00
2017-11-19T06:44:22.208Z,3.47
2017-11-19T06:46:48.637Z,3.50
2017-11-19T06:49:15.272Z,3.40
2017-11-19T06:51:41.809Z,3.37
2017-11-19T06:54:08.394Z,3.17
2017-11-19T06:56:35.087Z,3.83
2017-11-19T06:59:03.027Z,4.20
2017-11-19T07:01:29.503Z,4.17
2017-11-19T07:03:56.017Z,2.97
2017-11-19T07:06:24.842Z,3.10
2017-11-19T07:08:54.738Z,3.17
2017-11-19T07:11:23.631Z,3.20
2017-11-19T07:13:51.982Z,3.83
2017-11-19T07:16:23.680Z,3.57
2017-11-19T07:18:50.608Z,2.80
2017-11-19T07:21:17.090Z,3.27
2017-11-19T07:23:44.345Z,3.33
2017-11-19T07:26:11.574Z,3.40
2017-11-19T07:28:38.269Z,3.03
2017-11-19T07:31:04.815Z,3.47
2017-11-19T07:33:31.322Z,4.00
2017-11-19T07:35:57.848Z,3.33
2017-11-19T07:38:28.491Z,3.73
2017-11-19T07:40:55.721Z,3.17
2017-11-19T07:43:22.287Z,3.60
2017-11-19T07:45:48.825Z,3.67
2017-11-19T07:48:15.366Z,3.10
2017-11-19T07:50:41.949Z,2.77
2017-11-19T07:53:08.421Z,2.80
2017-11-19T07:55:35.777Z,3.63
2017-11-19T07:58:02.250Z,3.30
2017-11-19T08:00:29.545Z,2.57
2017-11-19T08:02:56.786Z,2.20
2017-11-19T08:05:24.002Z,3.20
2017-11-19T08:07:51.225Z,7.03
2017-11-19T08:10:17.739Z,2.40
2017-11-19T08:12:44.369Z,3.20
2017-11-19T08:15:10.916Z,3.07
2017-11-19T08:17:37.461Z,2.20
2017-11-19T08:20:03.967Z,2.30
2017-11-19T08:22:30.556Z,3.70
2017-11-19T08:24:57.066Z,3.17
2017-11-19T08:27:23.571Z,3.23
2017-11-19T08:29:50.099Z,2.80
2017-11-19T08:32:17.422Z,2.50
2017-11-19T08:34:44.017Z,2.20
2017-11-19T08:37:10.495Z,1.83
2017-11-19T08:39:37.747Z,2.10
2017-11-19T08:42:04.186Z,1.70
2017-11-19T08:44:30.748Z,2.27
2017-11-19T08:46:57.229Z,2.00
2017-11-19T08:49:23.682Z,2.50
2017-11-19T08:51:50.132Z,2.23
2017-11-19T08:54:16.762Z,2.77
2017-11-19T08:56:43.295Z,1.90
2017-11-19T08:59:10.081Z,2.60
2017-11-19T09:01:36.733Z,2.13
2017-11-19T09:04:04.124Z,2.57
2017-11-19T09:06:30.653Z,2.03
2017-11-19T09:08:57.133Z,2.23
2017-11-19T09:11:23.634Z,2.90
2017-11-19T09:13:50.201Z,2.90
2017-11-19T09:16:16.639Z,1.97
2017-11-19T09:18:43.076Z,2.30
2017-11-19T09:21:09.828Z,2.17
2017-11-19T09:23:37.773Z,1.70
2017-11-19T09:26:04.920Z,2.17
2017-11-19T09:28:32.628Z,2.30
2017-11-19T09:31:00.655Z,2.47
2017-11-19T09:33:27.624Z,2.40
2017-11-19T09:35:54.603Z,1.67
2017-11-19T09:38:21.581Z,2.23
2017-11-19T09:40:48.764Z,3.13
2017-11-19T09:43:16.367Z,1.70
2017-11-19T09:45:43.695Z,2.23
2017-11-19T09:48:10.774Z,2.57
2017-11-19T09:50:38.941Z,3.80
2017-11-19T09:53:05.414Z,1.80
2017-11-19T09:55:32.633Z,2.43
2017-11-19T09:57:59.755Z,1.57
2017-11-19T10:00:26.564Z,2.33
2017-11-19T10:02:54.301Z,2.20
2017-11-19T10:05:21.901Z,2.10
2017-11-19T10:07:48.702Z,2.10
2017-11-19T10:10:16.071Z,2.10
2017-11-19T10:12:43.037Z,1.87
2017-11-19T10:15:09.620Z,3.10
2017-11-19T10:17:36.215Z,2.57
2017-11-19T10:20:02.670Z,4.80
2017-11-19T10:22:29.173Z,2.30
2017-11-19T10:24:56.409Z,2.30
2017-11-19T10:27:22.968Z,2.07
2017-11-19T10:29:49.438Z,2.10
2017-11-19T10:32:15.963Z,2.60
2017-11-19T10:34:42.384Z,3.00
2017-11-19T10:37:09.527Z,2.70
2017-11-19T10:39:37.101Z,2.53
2017-11-19T10:42:04.279Z,2.93
2017-11-19T10:44:32.559Z,2.63
2017-11-19T10:46:59.651Z,2.40
2017-11-19T10:49:27.317Z,4.20
2017-11-19T10:51:55.912Z,3.60
2017-11-19T10:54:22.457Z,3.77
2017-11-19T10:56:49.006Z,2.70
2017-11-19T10:59:16.437Z,1.83
2017-11-19T11:01:43.044Z,2.20
2017-11-19T11:04:11.305Z,2.30
2017-11-19T11:06:38.693Z,3.17
2017-11-19T11:09:05.906Z,2.80
2017-11-19T11:11:32.407Z,3.30
2017-11-19T11:13:59.100Z,4.23
2017-11-19T11:16:25.666Z,2.57
2017-11-19T11:18:52.124Z,2.20
2017-11-19T11:21:18.669Z,2.90
2017-11-19T11:23:45.110Z,4.77
2017-11-19T11:26:11.756Z,3.03
2017-11-19T11:28:38.263Z,2.63
2017-11-19T11:31:04.805Z,4.23
2017-11-19T11:33:32.065Z,5.10
2017-11-19T11:35:58.549Z,4.03
2017-11-19T11:38:25.042Z,4.70
2017-11-19T11:40:51.751Z,2.70
2017-11-19T11:43:19.956Z,2.83
2017-11-19T11:45:49.512Z,2.50
2017-11-19T11:48:27.167Z,2.20
2017-11-19T11:50:53.813Z,3.43
2017-11-19T11:53:22.947Z,2.10
2017-11-19T11:55:49.487Z,4.60
2017-11-19T11:58:16.611Z,2.70
2017-11-19T12:00:45.350Z,2.30
2017-11-19T12:03:15.948Z,2.40
2017-11-19T12:05:44.104Z,2.77
2017-11-19T12:08:12.876Z,2.90
2017-11-19T12:10:40.577Z,2.20
2017-11-19T12:13:07.831Z,2.33
2017-11-19T12:15:35.720Z,3.10
2017-11-19T12:18:03.256Z,2.73
2017-11-19T12:20:31.673Z,2.80
2017-11-19T12:22:59.557Z,2.57
2017-11-19T12:25:27.638Z,3.60
2017-11-19T12:27:55.186Z,2.50
2017-11-19T12:30:21.766Z,2.20
2017-11-19T12:32:48.210Z,2.77
2017-11-19T12:35:14.684Z,2.97
2017-11-19T12:37:41.136Z,2.57
2017-11-19T12:40:07.676Z,2.97
2017-11-19T12:42:34.121Z,2.27
2017-11-19T12:45:01.525Z,2.57
2017-11-19T12:47:28.772Z,2.23
2017-11-19T12:49:55.250Z,3.03
2017-11-19T12:52:22.445Z,2.50
2017-11-19T12:54:48.898Z,2.33
2017-11-19T12:57:15.386Z,2.40
2017-11-19T12:59:42.604Z,2.50
2017-11-19T13:02:09.833Z,2.50
2017-11-19T13:04:36.309Z,3.60
2017-11-19T13:07:02.808Z,2.23
2017-11-19T13:09:29.291Z,1.63
2017-11-19T13:11:55.790Z,2.07
2017-11-19T13:14:22.280Z,1.83
2017-11-19T13:16:48.765Z,2.40
2017-11-19T13:19:15.258Z,2.80
2017-11-19T13:21:41.669Z,2.27
2017-11-19T13:24:08.865Z,3.23
2017-11-19T13:26:35.300Z,2.73
2017-11-19T13:29:01.805Z,2.40
2017-11-19T13:31:28.248Z,3.13
2017-11-19T13:33:54.743Z,2.77
2017-11-19T13:36:22.056Z,2.07
2017-11-19T13:38:48.640Z,1.40
2017-11-19T13:41:15.041Z,1.83
2017-11-19T13:43:42.269Z,2.50
2017-11-19T13:46:11.640Z,1.80
2017-11-19T13:48:38.124Z,1.43
2017-11-19T13:51:05.338Z,1.90
2017-11-19T13:53:32.531Z,1.70
2017-11-19T13:55:58.984Z,2.17
2017-11-19T13:58:25.382Z,2.70
2017-11-19T14:00:51.991Z,1.43
2017-11-19T14:03:20.329Z,1.80
2017-11-19T14:05:47.522Z,2.67
2017-11-19T14:08:13.962Z,3.63
2017-11-19T14:10:40.405Z,2.40
2017-11-19T14:13:06.852Z,2.83
2017-11-19T14:15:33.982Z,2.10
2017-11-19T14:18:01.151Z,2.60
2017-11-19T14:20:28.956Z,2.07
2017-11-19T14:22:56.648Z,2.97
2017-11-19T14:25:24.046Z,3.80
2017-11-19T14:27:52.328Z,3.03
2017-11-19T14:30:19.558Z,3.20
2017-11-19T14:32:46.205Z,2.83
2017-11-19T14:35:13.770Z,3.10
2017-11-19T14:37:41.741Z,2.17
2017-11-19T14:40:09.326Z,2.50
2017-11-19T14:42:36.474Z,2.53
2017-11-19T14:45:03.911Z,4.20
2017-11-19T14:47:34.721Z,2.30
2017-11-19T14:50:02.812Z,2.23
2017-11-19T14:52:29.333Z,1.83
2017-11-19T14:54:56.649Z,2.20
2017-11-19T14:57:23.083Z,2.50
2017-11-19T14:59:49.570Z,2.60
2017-11-19T15:02:15.995Z,4.10
2017-11-19T15:04:43.553Z,2.30
2017-11-19T15:07:11.530Z,3.00
2017-11-19T15:09:38.516Z,3.97
2017-11-19T15:12:05.801Z,2.30
2017-11-19T15:14:32.387Z,2.90
2017-11-19T15:16:59.404Z,3.60
2017-11-19T15:19:26.570Z,3.13
2017-11-19T15:21:54.327Z,2.23
2017-11-19T15:24:22.708Z,2.10
2017-11-19T15:26:50.104Z,2.20
2017-11-19T15:29:16.648Z,2.37
2017-11-19T15:31:44.016Z,2.03
2017-11-19T15:34:11.518Z,1.70
2017-11-19T15:36:37.953Z,1.83
2017-11-19T15:39:04.366Z,1.37
2017-11-19T15:41:30.959Z,1.80
2017-11-19T15:43:57.438Z,1.67
2017-11-19T15:46:24.747Z,1.80
2017-11-19T15:48:51.206Z,1.27
2017-11-19T15:51:17.643Z,2.57
2017-11-19T15:53:44.212Z,4.63
2017-11-19T15:56:11.593Z,2.20
2017-11-19T15:58:39.028Z,3.53
2017-11-19T16:01:06.267Z,1.93
2017-11-19T16:03:33.062Z,1.23
2017-11-19T16:06:00.766Z,1.80
2017-11-19T16:08:28.300Z,1.40
2017-11-19T16:10:54.785Z,2.40
2017-11-19T16:13:21.201Z,2.77
2017-11-19T16:15:47.581Z,1.83
2017-11-19T16:18:13.994Z,1.97
2017-11-19T16:20:40.369Z,2.07
2017-11-19T16:23:06.714Z,2.63
2017-11-19T16:25:33.085Z,2.47
2017-11-19T16:27:59.462Z,3.27
2017-11-19T16:30:25.882Z,2.60
2017-11-19T16:32:52.999Z,2.87
2017-11-19T16:35:19.377Z,3.20
2017-11-19T16:37:45.802Z,1.90
2017-11-19T16:40:12.197Z,2.70
2017-11-19T16:42:38.545Z,2.53
2017-11-19T16:45:04.954Z,2.90
2017-11-19T16:47:31.332Z,2.10
2017-11-19T16:49:57.694Z,2.70
2017-11-19T16:52:24.072Z,3.17
2017-11-19T16:54:51.263Z,1.27
2017-11-19T16:57:17.628Z,2.67
2017-11-19T16:59:43.991Z,2.70
2017-11-19T17:02:10.349Z,4.37
2017-11-19T17:04:36.785Z,3.87
2017-11-19T17:07:03.164Z,2.43
2017-11-19T17:09:29.537Z,2.77
2017-11-19T17:11:55.985Z,2.43
2017-11-19T17:14:23.285Z,3.93
2017-11-19T17:16:49.669Z,3.27
2017-11-19T17:19:16.814Z,2.83
2017-11-19T17:21:43.198Z,4.33
2017-11-19T17:24:09.557Z,2.83
2017-11-19T17:26:35.926Z,3.33
2017-11-19T17:29:03.088Z,3.63
2017-11-19T17:31:29.484Z,2.83
2017-11-19T17:33:55.875Z,2.87
2017-11-19T17:36:28.333Z,2.43
2017-11-19T17:38:54.718Z,2.73
2017-11-19T17:41:21.138Z,3.70
2017-11-19T17:43:47.509Z,2.60
2017-11-19T17:46:13.869Z,2.57
2017-11-19T17:48:40.975Z,4.60
2017-11-19T17:51:07.310Z,2.90
2017-11-19T17:53:33.708Z,2.97
2017-11-19T17:56:01.077Z,2.77
2017-11-19T17:58:28.217Z,4.00
2017-11-19T18:00:54.629Z,2.60
2017-11-19T18:03:20.982Z,2.60
2017-11-19T18:05:47.630Z,3.60
2017-11-19T18:08:13.989Z,3.63
2017-11-19T18:10:40.382Z,3.63
2017-11-19T18:13:07.486Z,3.37
2017-11-19T18:15:33.879Z,4.17
2017-11-19T18:18:00.977Z,3.67
2017-11-19T18:20:27.359Z,4.40
2017-11-19T18:22:53.831Z,5.03
2017-11-19T18:25:20.943Z,4.13
2017-11-19T18:27:48.079Z,3.50
2017-11-19T18:30:14.474Z,4.33
2017-11-19T18:32:41.631Z,3.93
2017-11-19T18:35:08.736Z,5.40
2017-11-19T18:37:35.128Z,4.87
2017-11-19T18:40:02.281Z,4.73
2017-11-19T18:42:28.629Z,4.70
2017-11-19T18:44:55.037Z,4.73
2017-11-19T18:47:21.476Z,4.30
2017-11-19T18:49:47.839Z,3.80
2017-11-19T18:52:14.241Z,3.80
2017-11-19T18:54:40.603Z,4.20
2017-11-19T18:57:06.992Z,4.00
2017-11-19T18:59:33.369Z,5.17
2017-11-19T19:02:00.456Z,4.23
2017-11-19T19:04:27.580Z,3.10
2017-11-19T19:06:54.668Z,4.00
2017-11-19T19:09:21.053Z,2.90
2017-11-19T19:11:47.421Z,3.67
2017-11-19T19:14:13.834Z,4.77
2017-11-19T19:16:41.729Z,3.40
2017-11-19T19:19:08.858Z,3.73
2017-11-19T19:21:35.205Z,4.10
2017-11-19T19:24:01.692Z,2.90
2017-11-19T19:26:28.208Z,3.50
2017-11-19T19:28:54.563Z,4.57
2017-11-19T19:31:20.937Z,4.50
2017-11-19T19:33:48.032Z,3.03
2017-11-19T19:36:14.437Z,3.87
2017-11-19T19:38:41.555Z,3.47
2017-11-19T19:41:08.001Z,3.40
2017-11-19T19:43:34.345Z,4.47
2017-11-19T19:46:00.782Z,3.27
2017-11-19T19:48:27.344Z,3.70
2017-11-19T19:50:53.717Z,5.20
2017-11-19T19:53:20.816Z,3.47
2017-11-19T19:55:47.245Z,3.10
2017-11-19T19:58:13.640Z,3.30
2017-11-19T20:00:40.813Z,3.77
2017-11-19T20:03:07.980Z,3.70
2017-11-19T20:05:35.124Z,3.90
2017-11-19T20:08:01.504Z,3.53
2017-11-19T20:10:28.605Z,3.50
2017-11-19T20:12:55.701Z,4.97
2017-11-19T20:15:22.820Z,3.97
2017-11-19T20:17:49.200Z,3.90
2017-11-19T20:20:17.065Z,4.83
2017-11-19T20:22:43.433Z,3.50
2017-11-19T20:25:09.789Z,4.70
2017-11-19T20:27:36.173Z,3.87
2017-11-19T20:30:02.575Z,4.73
2017-11-19T20:32:28.983Z,4.17
2017-11-19T20:34:55.555Z,4.10
2017-11-19T20:37:22.663Z,3.50
2017-11-19T20:39:49.053Z,3.77
2017-11-19T20:42:15.413Z,3.97
2017-11-19T20:44:41.781Z,4.63
2017-11-19T20:47:08.138Z,5.13
2017-11-19T20:49:34.536Z,3.80
2017-11-19T20:52:00.898Z,3.87
2017-11-19T20:54:27.319Z,4.00
2017-11-19T20:56:53.681Z,4.73
2017-11-19T20:59:20.045Z,6.77
2017-11-19T21:01:46.419Z,4.80
2017-11-19T21:04:12.840Z,4.10
2017-11-19T21:06:39.199Z,2.73
2017-11-19T21:09:05.580Z,4.53
2017-11-19T21:11:31.929Z,4.70
2017-11-19T21:13:59.757Z,5.27
2017-11-19T21:16:26.178Z,5.33
2017-11-19T21:18:52.565Z,5.07
2017-11-19T21:21:18.925Z,4.13
2017-11-19T21:23:45.288Z,4.00
2017-11-19T21:26:12.408Z,4.60
2017-11-19T21:28:38.797Z,4.23
2017-11-19T21:31:05.905Z,3.83
2017-11-19T21:33:32.296Z,5.17
2017-11-19T21:35:59.425Z,4.27
2017-11-19T21:38:25.772Z,3.43
2017-11-19T21:40:52.904Z,3.93
2017-11-19T21:43:19.308Z,3.80
2017-11-19T21:45:46.458Z,3.50
2017-11-19T21:48:13.586Z,3.83
2017-11-19T21:50:39.965Z,2.70
2017-11-19T21:53:06.324Z,3.73
2017-11-19T21:55:33.437Z,4.53
2017-11-19T21:57:59.805Z,3.00
2017-11-19T22:00:26.176Z,4.60
2017-11-19T22:02:54.109Z,3.73
2017-11-19T22:05:20.545Z,3.50
2017-11-19T22:07:46.956Z,3.63
2017-11-19T22:10:13.320Z,3.23
2017-11-19T22:12:39.685Z,4.73
2017-11-19T22:15:06.096Z,3.80
2017-11-19T22:17:32.627Z,3.93
2017-11-19T22:19:59.820Z,4.63
2017-11-19T22:22:26.197Z,7.53
2017-11-19T22:24:52.570Z,4.93
2017-11-19T22:27:18.965Z,5.40
2017-11-19T22:29:45.393Z,8.40
2017-11-19T22:32:11.768Z,5.17
2017-11-19T22:34:38.133Z,5.23
2017-11-19T22:37:05.254Z,4.07
2017-11-19T22:39:32.389Z,3.60
2017-11-19T22:41:58.803Z,4.43
2017-11-19T22:44:25.896Z,3.83
2017-11-19T22:46:52.277Z,4.27
2017-11-19T22:49:18.637Z,3.60
2017-11-19T22:51:46.489Z,4.33
2017-11-19T22:54:12.897Z,3.33
2017-11-19T22:56:39.309Z,4.53
2017-11-19T22:59:06.405Z,4.87
2017-11-19T23:01:32.869Z,4.30
2017-11-19T23:03:59.257Z,3.33
2017-11-19T23:06:25.842Z,5.30
2017-11-19T23:08:52.225Z,4.57
2017-11-19T23:11:18.572Z,5.97
2017-11-19T23:13:44.945Z,6.10
2017-11-19T23:16:11.353Z,4.87
2017-11-19T23:18:37.724Z,4.80
2017-11-19T23:21:04.817Z,4.53
2017-11-19T23:23:31.208Z,6.40
2017-11-19T23:25:57.557Z,5.27
2017-11-19T23:28:23.936Z,5.67
2017-11-19T23:30:51.014Z,6.27
2017-11-19T23:33:17.378Z,5.27
2017-11-19T23:35:43.749Z,5.90
2017-11-19T23:38:10.153Z,6.50
2017-11-19T23:40:36.496Z,5.83
2017-11-19T23:43:02.851Z,5.40
2017-11-19T23:45:29.236Z,5.23
2017-11-19T23:47:56.332Z,6.60
2017-11-19T23:50:22.693Z,5.33
2017-11-19T23:52:49.025Z,6.00
2017-11-19T23:55:15.385Z,5.83
2017-11-19T23:57:41.713Z,6.30
